Time;durP1;ratioP1;P1;durP2;ratioP2;P2;SDS_P1;SDS_P2;PMS_P1;PMS_P2;Temp;Humidity;BMP_temperature;BMP_pressure;BME280_temperature;BME280_humidity;BME280_pressure;Samples;Min_cycle;Max_cycle;Signal;HPM_P1;HPM_P2
2023/06/01 00:01:48;;;;;;;10.50;8.30;;;;;;;14.23;80.29;102078.84;5015413;28;20054;-68
2023/06/01 00:04:14;;;;;;;11.40;8.77;;;;;;;14.23;80.17;102074.38;5019903;28;20198;-68
2023/06/01 00:06:40;;;;;;;12.13;9.30;;;;;;;14.12;80.77;102074.00;5016881;28;20041;-67
2023/06/01 00:09:06;;;;;;;15.38;9.60;;;;;;;14.00;81.73;102069.19;5016622;28;20030;-67
2023/06/01 00:11:31;;;;;;;11.77;8.80;;;;;;;13.94;81.98;102071.22;5023480;28;20475;-67
2023/06/01 00:13:57;;;;;;;11.65;8.52;;;;;;;13.85;82.79;102070.78;5022027;28;20086;-66
2023/06/01 00:16:22;;;;;;;11.32;9.00;;;;;;;13.83;82.73;102065.47;5017975;28;20029;-66
2023/06/01 00:18:48;;;;;;;14.63;9.93;;;;;;;13.78;82.99;102064.81;5024429;28;20429;-66
2023/06/01 00:21:14;;;;;;;13.95;9.85;;;;;;;13.68;83.54;102064.38;5032400;28;20060;-68
2023/06/01 00:23:40;;;;;;;13.68;9.98;;;;;;;13.59;83.68;102067.47;5031360;28;20029;-66
2023/06/01 00:26:07;;;;;;;12.88;10.30;;;;;;;13.52;84.66;102067.78;5037065;28;20040;-67
2023/06/01 00:28:32;;;;;;;14.77;10.40;;;;;;;13.48;84.78;102060.84;5035089;28;20025;-67
2023/06/01 00:30:58;;;;;;;16.20;10.48;;;;;;;13.34;85.54;102059.63;5029074;28;20025;-67
2023/06/01 00:33:23;;;;;;;17.45;10.98;;;;;;;13.42;85.37;102059.31;5029573;28;20465;-68
2023/06/01 00:35:49;;;;;;;14.77;10.82;;;;;;;13.30;85.99;102067.84;5024437;28;20021;-67
2023/06/01 00:38:15;;;;;;;13.23;10.68;;;;;;;13.32;85.95;102063.28;5028506;28;20647;-67
2023/06/01 00:40:40;;;;;;;15.68;10.80;;;;;;;13.23;86.36;102066.38;5024355;28;20029;-68
2023/06/01 00:43:06;;;;;;;12.63;11.00;;;;;;;13.21;86.54;102067.28;5021928;28;20098;-67
2023/06/01 00:45:31;;;;;;;15.30;11.18;;;;;;;13.18;86.80;102064.72;5022538;28;20046;-68
2023/06/01 00:47:57;;;;;;;14.18;10.90;;;;;;;13.14;86.84;102057.75;5022617;28;20017;-67
2023/06/01 00:50:23;;;;;;;16.15;11.10;;;;;;;13.07;87.41;102066.97;5018425;28;20526;-66
2023/06/01 00:52:50;;;;;;;15.80;11.73;;;;;;;13.03;87.48;102067.16;5016455;28;20026;-66
2023/06/01 00:55:16;;;;;;;15.27;11.30;;;;;;;12.98;87.63;102059.34;5017682;28;20068;-67
2023/06/01 00:57:43;;;;;;;15.38;11.27;;;;;;;12.99;87.75;102069.09;5009585;28;20052;-67
2023/06/01 01:00:10;;;;;;;16.63;11.75;;;;;;;12.89;88.01;102068.59;5015539;28;20079;-67
2023/06/01 01:02:39;;;;;;;16.15;11.55;;;;;;;12.83;88.56;102073.31;5017481;28;20060;-67
2023/06/01 01:05:12;;;;;;;17.83;12.15;;;;;;;12.84;88.05;102073.28;5012735;28;20084;-66
2023/06/01 01:07:37;;;;;;;15.38;12.98;;;;;;;12.67;88.99;102071.28;5017711;28;20053;-66
2023/06/01 01:10:09;;;;;;;14.50;11.60;;;;;;;12.73;88.55;102071.97;5015315;28;20091;-66
2023/06/01 01:12:50;;;;;;;17.48;12.23;;;;;;;12.68;89.26;102080.16;5019245;28;20034;-67
2023/06/01 01:15:32;;;;;;;17.20;12.82;;;;;;;12.64;88.83;102075.88;5021110;28;20048;-66
2023/06/01 01:18:13;;;;;;;15.48;12.90;;;;;;;12.50;89.50;102071.09;5022251;28;20041;-67
2023/06/01 01:20:43;;;;;;;14.63;12.95;;;;;;;12.31;89.69;102078.94;5020195;28;20033;-66
2023/06/01 01:23:38;;;;;;;16.58;12.32;;;;;;;12.32;89.49;102082.47;5014793;28;20476;-67
2023/06/01 01:26:31;;;;;;;15.63;12.82;;;;;;;12.21;89.43;102077.56;5016751;28;20514;-67
2023/06/01 01:29:18;;;;;;;16.55;12.73;;;;;;;12.16;89.36;102083.06;5021193;28;20509;-67
2023/06/01 01:31:45;;;;;;;18.33;13.35;;;;;;;11.92;90.21;102073.31;5009412;28;20030;-66
2023/06/01 01:34:11;;;;;;;17.05;13.00;;;;;;;11.85;90.84;102077.13;5014731;28;20029;-67
2023/06/01 01:36:36;;;;;;;18.45;13.00;;;;;;;11.78;90.96;102080.91;5022402;28;20569;-66
2023/06/01 01:39:03;;;;;;;16.90;12.55;;;;;;;11.79;90.79;102072.84;5018394;28;20373;-67
2023/06/01 01:41:28;;;;;;;14.32;12.07;;;;;;;11.72;91.42;102076.66;5022543;28;20029;-67
2023/06/01 01:43:55;;;;;;;20.67;13.23;;;;;;;11.59;91.99;102086.03;5018364;28;20513;-67
2023/06/01 01:46:28;;;;;;;18.33;12.65;;;;;;;11.64;91.85;102092.94;5019723;28;20068;-67
2023/06/01 01:49:36;;;;;;;17.25;13.18;;;;;;;11.66;91.19;102088.44;5019929;28;20521;-67
2023/06/01 01:52:21;;;;;;;21.25;13.48;;;;;;;11.66;91.75;102087.53;4999394;28;20614;-68
2023/06/01 01:54:49;;;;;;;16.83;12.48;;;;;;;11.62;91.88;102092.13;4997982;28;20868;-66
2023/06/01 01:57:16;;;;;;;15.18;13.05;;;;;;;11.56;92.66;102088.78;5003136;28;20064;-67
2023/06/01 01:59:44;;;;;;;15.32;12.05;;;;;;;11.49;92.78;102090.78;4993382;28;20049;-68
2023/06/01 02:02:10;;;;;;;20.35;13.07;;;;;;;11.51;92.70;102088.09;4997210;28;20158;-67
2023/06/01 02:04:43;;;;;;;17.73;13.93;;;;;;;11.40;93.71;102086.66;5000876;28;20045;-67
2023/06/01 02:07:09;;;;;;;16.50;11.90;;;;;;;11.46;92.60;102086.47;5004334;28;20037;-67
2023/06/01 02:09:35;;;;;;;15.85;12.32;;;;;;;11.30;92.64;102077.25;4985848;28;20050;-67
2023/06/01 02:12:02;;;;;;;17.75;12.68;;;;;;;11.15;93.52;102083.09;5003007;28;20385;-67
2023/06/01 02:14:28;;;;;;;16.00;12.40;;;;;;;11.10;93.45;102080.56;5001171;28;20040;-68
2023/06/01 02:16:53;;;;;;;17.23;12.10;;;;;;;11.08;93.68;102086.91;5006684;28;20049;-68
2023/06/01 02:19:19;;;;;;;14.57;12.02;;;;;;;11.10;93.23;102077.91;4996358;28;20026;-67
2023/06/01 02:21:45;;;;;;;17.13;12.85;;;;;;;11.10;93.19;102079.72;4994965;28;20297;-66
2023/06/01 02:24:10;;;;;;;16.52;12.52;;;;;;;11.12;93.17;102080.50;5023615;28;20394;-68
2023/06/01 02:26:35;;;;;;;18.45;13.30;;;;;;;11.01;93.46;102083.56;5019438;28;20029;-66
2023/06/01 02:29:07;;;;;;;17.40;13.05;;;;;;;10.91;94.32;102085.66;5009876;28;20112;-67
2023/06/01 02:31:34;;;;;;;21.77;12.65;;;;;;;10.96;94.19;102082.84;5015737;28;20036;-67
2023/06/01 02:34:00;;;;;;;18.02;13.00;;;;;;;10.96;94.29;102089.03;5017501;28;20092;-67
2023/06/01 02:36:28;;;;;;;16.67;12.40;;;;;;;10.96;94.65;102080.16;5021911;28;20033;-67
2023/06/01 02:38:55;;;;;;;18.55;12.50;;;;;;;11.03;94.04;102092.34;5023671;28;20694;-67
2023/06/01 02:41:21;;;;;;;18.05;13.52;;;;;;;10.92;94.75;102076.72;5022669;28;20033;-67
2023/06/01 02:43:47;;;;;;;19.20;14.60;;;;;;;10.83;95.26;102073.50;5021826;28;20036;-67
2023/06/01 02:46:12;;;;;;;18.13;14.50;;;;;;;10.81;95.39;102081.53;5016015;28;20033;-66
2023/06/01 02:48:37;;;;;;;17.75;13.45;;;;;;;10.80;95.49;102077.13;5011159;28;20507;-67
2023/06/01 02:51:03;;;;;;;22.45;15.07;;;;;;;10.75;95.19;102075.53;5020883;28;20036;-66
2023/06/01 02:53:28;;;;;;;21.15;15.23;;;;;;;10.82;94.62;102083.25;5022867;28;20116;-66
2023/06/01 02:55:54;;;;;;;22.50;16.00;;;;;;;10.75;94.79;102079.06;5022416;28;20033;-68
2023/06/01 02:58:20;;;;;;;21.95;15.82;;;;;;;10.75;94.84;102080.88;5022756;28;20580;-67
2023/06/01 03:00:46;;;;;;;24.75;16.77;;;;;;;10.80;94.48;102078.94;5019309;28;20036;-68
2023/06/01 03:03:12;;;;;;;20.67;16.98;;;;;;;10.66;95.05;102071.38;5011993;28;20041;-68
2023/06/01 03:05:38;;;;;;;23.88;16.77;;;;;;;10.78;95.26;102084.28;5009319;28;20529;-67
2023/06/01 03:08:06;;;;;;;22.70;16.98;;;;;;;10.73;95.47;102084.44;5010526;28;20022;-67
2023/06/01 03:10:31;;;;;;;24.48;18.08;;;;;;;10.70;95.00;102089.88;5012784;28;20032;-67
2023/06/01 03:12:57;;;;;;;23.70;18.38;;;;;;;10.74;94.41;102087.97;5014158;28;20471;-68
2023/06/01 03:15:23;;;;;;;21.02;17.52;;;;;;;10.75;94.18;102088.84;5016242;28;20415;-67
2023/06/01 03:17:48;;;;;;;21.50;17.75;;;;;;;10.77;94.08;102087.88;5013432;28;20022;-68
2023/06/01 03:20:16;;;;;;;22.77;18.25;;;;;;;10.76;93.95;102090.59;5015189;28;20022;-67
2023/06/01 03:22:42;;;;;;;20.63;18.42;;;;;;;10.72;94.04;102097.81;5012132;28;20037;-67
2023/06/01 03:25:08;;;;;;;21.17;18.35;;;;;;;10.67;94.21;102102.41;5013573;28;20147;-67
2023/06/01 03:27:34;;;;;;;23.33;19.23;;;;;;;10.59;94.52;102097.31;5013245;28;20483;-66
2023/06/01 03:30:01;;;;;;;22.50;18.80;;;;;;;10.60;94.37;102087.53;5010517;28;20034;-68
2023/06/01 03:32:27;;;;;;;22.35;18.63;;;;;;;10.60;94.79;102101.72;5004004;28;20752;-68
2023/06/01 03:34:53;;;;;;;21.17;18.38;;;;;;;10.59;94.71;102092.00;5005397;28;20025;-66
2023/06/01 03:37:19;;;;;;;23.00;18.67;;;;;;;10.60;94.37;102088.41;5012800;28;20604;-67
2023/06/01 03:39:44;;;;;;;21.45;18.85;;;;;;;10.55;94.53;102089.47;5007282;28;20755;-66
2023/06/01 03:42:09;;;;;;;21.38;18.27;;;;;;;10.65;93.99;102083.78;5009524;28;20134;-68
2023/06/01 03:44:35;;;;;;;21.23;17.98;;;;;;;10.66;94.03;102082.91;5010509;28;20034;-66
2023/06/01 03:47:00;;;;;;;21.67;17.60;;;;;;;10.54;94.28;102093.94;5017220;28;20587;-67
2023/06/01 03:49:26;;;;;;;23.23;18.17;;;;;;;10.55;94.23;102087.69;5015731;28;20021;-66
2023/06/01 03:51:51;;;;;;;22.08;19.15;;;;;;;10.47;94.40;102095.03;5018729;28;20391;-66
2023/06/01 03:54:16;;;;;;;21.58;18.83;;;;;;;10.46;94.88;102094.16;5017976;28;20124;-66
2023/06/01 03:56:42;;;;;;;21.92;18.80;;;;;;;10.42;94.96;102097.84;5017533;28;20053;-67
2023/06/01 03:59:09;;;;;;;20.27;18.15;;;;;;;10.45;94.62;102100.41;5007427;28;20488;-66
2023/06/01 04:01:38;;;;;;;20.00;17.90;;;;;;;10.46;94.37;102101.28;5012701;28;20044;-66
2023/06/01 04:04:05;;;;;;;19.58;17.45;;;;;;;10.46;94.30;102099.47;5013959;28;20029;-66
2023/06/01 04:06:35;;;;;;;19.85;17.08;;;;;;;10.52;94.12;102105.53;5011320;28;20052;-67
2023/06/01 04:09:06;;;;;;;19.83;17.73;;;;;;;10.54;93.88;102098.38;5013284;28;20021;-67
2023/06/01 04:11:34;;;;;;;21.02;17.50;;;;;;;10.46;94.22;102101.28;5009343;28;20488;-66
2023/06/01 04:14:00;;;;;;;18.67;16.20;;;;;;;10.52;93.93;102103.75;5011904;28;20468;-66
2023/06/01 04:16:25;;;;;;;18.83;16.33;;;;;;;10.51;93.74;102098.47;5007818;28;20109;-67
2023/06/01 04:18:51;;;;;;;20.05;16.88;;;;;;;10.65;93.66;102105.09;5006118;28;20107;-66
2023/06/01 04:21:17;;;;;;;19.65;16.63;;;;;;;10.64;93.22;102103.38;5010745;28;20053;-67
2023/06/01 04:23:42;;;;;;;18.38;16.30;;;;;;;10.66;92.96;102104.19;5007591;28;20099;-67
2023/06/01 04:26:08;;;;;;;18.48;16.50;;;;;;;10.73;92.37;102104.88;5007041;28;20068;-66
2023/06/01 04:28:34;;;;;;;18.55;16.50;;;;;;;10.72;92.76;102097.81;5010173;28;20121;-67
2023/06/01 04:31:02;;;;;;;17.40;15.55;;;;;;;10.69;92.81;102109.41;5007338;28;20019;-67
2023/06/01 04:33:28;;;;;;;18.73;16.50;;;;;;;10.73;92.34;102105.72;5009526;28;20468;-66
2023/06/01 04:35:53;;;;;;;19.17;15.13;;;;;;;10.79;91.67;102109.16;5011276;28;20029;-66
2023/06/01 04:38:21;;;;;;;18.00;14.75;;;;;;;10.80;90.93;102116.22;5013510;28;20037;-66
2023/06/01 04:40:46;;;;;;;16.50;14.52;;;;;;;10.79;90.62;102112.69;5007133;28;20371;-68
2023/06/01 04:43:12;;;;;;;18.02;15.05;;;;;;;10.83;90.39;102113.47;5011094;28;20028;-67
2023/06/01 04:45:38;;;;;;;17.02;15.30;;;;;;;10.84;90.39;102116.06;5010672;28;20048;-67
2023/06/01 04:48:10;;;;;;;17.02;15.15;;;;;;;10.91;90.19;102114.06;5023181;28;20108;-69
2023/06/01 04:50:37;;;;;;;16.95;15.15;;;;;;;10.85;89.53;102116.94;5019477;28;20187;-68
2023/06/01 04:53:03;;;;;;;18.90;14.93;;;;;;;10.80;89.29;102122.41;5021645;28;20071;-67
2023/06/01 04:55:30;;;;;;;18.48;15.13;;;;;;;10.88;89.23;102120.38;5022725;28;20034;-68
2023/06/01 04:57:55;;;;;;;17.00;15.07;;;;;;;10.87;88.88;102113.31;5022343;28;20091;-68
2023/06/01 05:00:21;;;;;;;17.67;14.90;;;;;;;10.89;88.68;102115.91;5021433;28;20168;-68
2023/06/01 05:02:48;;;;;;;19.60;15.20;;;;;;;10.91;88.62;102109.63;5018531;28;20063;-66
2023/06/01 05:05:14;;;;;;;17.08;15.05;;;;;;;10.96;88.46;102117.47;5010880;28;20210;-66
2023/06/01 05:07:41;;;;;;;20.77;16.17;;;;;;;11.04;88.01;102110.09;5012212;28;20025;-66
2023/06/01 05:10:09;;;;;;;19.33;15.07;;;;;;;11.18;87.70;102106.97;5014641;28;20038;-66
2023/06/01 05:12:35;;;;;;;16.65;14.95;;;;;;;11.25;87.04;102099.66;5031374;28;20057;-68
2023/06/01 05:15:02;;;;;;;17.92;15.27;;;;;;;11.38;86.10;102104.50;5038912;28;20039;-67
2023/06/01 05:17:29;;;;;;;15.85;14.10;;;;;;;11.38;85.52;102109.84;5038144;28;20037;-67
2023/06/01 05:19:54;;;;;;;17.95;15.38;;;;;;;11.29;85.44;102098.63;5036093;28;20062;-67
2023/06/01 05:22:19;;;;;;;16.90;15.10;;;;;;;11.16;86.04;102098.13;5030835;28;20546;-66
2023/06/01 05:24:45;;;;;;;18.05;14.85;;;;;;;11.16;86.37;102114.13;5030236;28;20049;-67
2023/06/01 05:27:10;;;;;;;17.80;14.98;;;;;;;11.31;85.78;102105.63;5025841;28;20021;-66
2023/06/01 05:29:35;;;;;;;17.95;14.85;;;;;;;11.50;85.42;102105.88;5027454;28;20509;-66
2023/06/01 05:32:01;;;;;;;16.45;14.68;;;;;;;11.70;85.29;102105.16;5023462;28;20064;-68
2023/06/01 05:34:26;;;;;;;18.85;14.80;;;;;;;12.01;83.80;102102.31;5027625;28;20136;-66
2023/06/01 05:36:51;;;;;;;16.48;14.70;;;;;;;12.15;82.16;102100.00;5029315;28;20029;-66
2023/06/01 05:39:17;;;;;;;17.25;14.38;;;;;;;12.15;81.45;102096.44;5025459;28;20037;-66
2023/06/01 05:41:42;;;;;;;18.60;14.27;;;;;;;12.34;81.35;102092.16;5019894;28;20034;-68
2023/06/01 05:44:08;;;;;;;15.90;13.77;;;;;;;12.65;79.62;102094.50;5022198;28;20041;-67
2023/06/01 05:46:33;;;;;;;15.32;13.73;;;;;;;12.65;79.08;102098.97;5023228;28;20036;-68
2023/06/01 05:49:00;;;;;;;15.73;14.02;;;;;;;12.61;78.96;102103.56;5019820;28;20075;-68
2023/06/01 05:51:25;;;;;;;16.17;13.80;;;;;;;12.73;77.82;102102.22;5022969;28;20037;-67
2023/06/01 05:53:50;;;;;;;15.32;13.93;;;;;;;12.60;77.83;102092.94;5026080;28;20079;-67
2023/06/01 05:56:16;;;;;;;17.65;14.20;;;;;;;12.52;78.07;102095.91;5011105;28;20348;-67
2023/06/01 05:58:42;;;;;;;17.67;14.38;;;;;;;12.49;78.44;102097.84;5018512;28;20026;-67
2023/06/01 06:01:09;;;;;;;16.80;14.68;;;;;;;12.31;78.38;102108.28;5019521;28;20041;-68
2023/06/01 06:03:34;;;;;;;17.15;14.30;;;;;;;12.19;79.21;102100.75;5024327;28;20033;-67
2023/06/01 06:06:00;;;;;;;17.30;14.93;;;;;;;12.17;78.87;102100.81;5024875;28;20563;-67
2023/06/01 06:08:25;;;;;;;18.83;14.38;;;;;;;12.24;78.79;102104.09;5022413;28;20029;-67
2023/06/01 06:10:51;;;;;;;16.70;14.32;;;;;;;12.23;79.21;102105.03;5020932;28;20125;-68
2023/06/01 06:13:16;;;;;;;20.98;14.70;;;;;;;12.21;79.54;102118.47;5014445;28;20442;-69
2023/06/01 06:15:41;;;;;;;17.80;14.50;;;;;;;12.23;79.70;102105.03;5023877;28;20041;-68
2023/06/01 06:18:07;;;;;;;17.02;13.15;;;;;;;12.38;79.22;102112.47;5025147;28;20480;-66
2023/06/01 06:20:32;;;;;;;15.65;13.98;;;;;;;12.42;79.02;102106.09;5019153;28;20083;-68
2023/06/01 06:22:57;;;;;;;19.33;13.88;;;;;;;12.56;78.50;102108.22;5020629;28;20095;-67
2023/06/01 06:25:23;;;;;;;18.48;14.57;;;;;;;12.56;77.67;102113.56;5020707;28;20539;-68
2023/06/01 06:27:48;;;;;;;17.25;14.27;;;;;;;12.68;77.33;102118.44;5022176;28;20025;-68
2023/06/01 06:30:14;;;;;;;18.13;13.98;;;;;;;12.77;76.81;102119.00;5023805;28;20060;-67
2023/06/01 06:32:40;;;;;;;16.27;14.05;;;;;;;12.68;77.09;102118.44;5018311;28;20202;-68
2023/06/01 06:35:05;;;;;;;70.60;22.17;;;;;;;12.67;76.90;102116.69;5020693;28;20017;-68
2023/06/01 06:37:31;;;;;;;120.78;28.58;;;;;;;12.87;76.80;102115.00;5020324;28;20025;-69
2023/06/01 06:39:56;;;;;;;18.85;13.85;;;;;;;12.94;75.92;102120.06;5018896;28;20037;-68
2023/06/01 06:42:23;;;;;;;16.70;14.20;;;;;;;13.02;75.50;102114.41;5014680;28;20495;-68
2023/06/01 06:44:48;;;;;;;16.77;13.57;;;;;;;13.01;75.41;102114.47;5015357;28;20510;-69
2023/06/01 06:47:18;;;;;;;16.08;13.93;;;;;;;12.95;75.04;102113.78;5027494;28;20033;-68
2023/06/01 06:49:43;;;;;;;19.98;14.02;;;;;;;13.21;75.28;102111.84;5024999;28;20021;-69
2023/06/01 06:52:09;;;;;;;16.92;13.30;;;;;;;13.37;73.62;102102.25;5020579;28;20487;-68
2023/06/01 06:54:35;;;;;;;18.10;13.98;;;;;;;13.43;73.18;102117.19;5018008;28;20029;-68
2023/06/01 06:57:00;;;;;;;17.00;13.02;;;;;;;13.64;72.49;102110.91;5021393;28;20395;-70
2023/06/01 06:59:26;;;;;;;17.10;13.48;;;;;;;13.48;71.62;102117.00;5023126;28;20037;-70
2023/06/01 07:01:51;;;;;;;16.80;13.13;;;;;;;13.49;72.58;102124.94;5018921;28;20578;-70
2023/06/01 07:04:17;;;;;;;16.52;12.70;;;;;;;13.40;73.06;102123.53;5017105;28;20075;-70
2023/06/01 07:06:42;;;;;;;15.73;12.55;;;;;;;13.33;73.15;102126.53;5037057;28;20025;-70
2023/06/01 07:09:09;;;;;;;18.10;13.70;;;;;;;13.27;74.16;102119.63;5019223;28;20088;-71
2023/06/01 07:11:34;;;;;;;16.58;13.18;;;;;;;13.42;73.18;102121.69;5022363;28;20116;-69
2023/06/01 07:14:00;;;;;;;15.18;12.15;;;;;;;13.79;73.29;102116.53;5021695;28;20104;-69
2023/06/01 07:16:25;;;;;;;19.80;14.73;;;;;;;13.72;71.76;102117.75;5018495;28;20060;-69
2023/06/01 07:18:51;;;;;;;17.35;13.70;;;;;;;14.14;71.08;102109.59;5020293;28;20384;-70
2023/06/01 07:21:17;;;;;;;18.52;13.77;;;;;;;14.02;70.86;102110.16;5012076;28;20040;-69
2023/06/01 07:23:43;;;;;;;16.20;13.23;;;;;;;13.98;70.46;102105.88;5011304;28;20025;-69
2023/06/01 07:26:08;;;;;;;15.82;12.32;;;;;;;14.43;69.76;102114.47;5018939;28;20036;-70
2023/06/01 07:28:34;;;;;;;15.77;12.77;;;;;;;14.71;67.28;102105.16;5019319;28;20094;-68
2023/06/01 07:31:00;;;;;;;16.77;11.63;;;;;;;15.42;66.15;102106.09;5020790;28;20132;-68
2023/06/01 07:33:25;;;;;;;15.73;11.90;;;;;;;16.16;63.98;102111.16;5017352;28;20037;-68
2023/06/01 07:35:52;;;;;;;15.23;12.27;;;;;;;16.37;61.96;102100.19;5017615;28;20109;-69
2023/06/01 07:38:19;;;;;;;15.07;12.13;;;;;;;16.65;59.93;102100.38;5016786;28;20435;-67
2023/06/01 07:40:45;;;;;;;14.70;11.77;;;;;;;16.75;59.04;102107.97;5017997;28;20029;-69
2023/06/01 07:43:11;;;;;;;14.27;12.20;;;;;;;17.18;58.17;102101.84;5021806;28;20029;-68
2023/06/01 07:45:36;;;;;;;16.85;12.00;;;;;;;17.57;57.30;102107.63;5019602;28;20030;-69
2023/06/01 07:48:02;;;;;;;16.60;12.00;;;;;;;17.74;55.70;102083.28;5018798;28;20109;-69
2023/06/01 07:50:30;;;;;;;15.18;12.10;;;;;;;18.07;54.97;102099.19;5019827;28;20032;-68
2023/06/01 07:52:57;;;;;;;13.05;11.57;;;;;;;18.46;54.70;102102.13;5022200;28;20483;-67
2023/06/01 07:55:22;;;;;;;15.40;10.75;;;;;;;18.78;53.53;102113.56;5022800;28;20487;-68
2023/06/01 07:57:48;;;;;;;17.88;12.00;;;;;;;19.23;51.92;102117.75;5014087;28;20178;-68
2023/06/01 08:00:17;;;;;;;13.43;10.98;;;;;;;19.93;50.45;102119.31;5014878;28;20022;-68
2023/06/01 08:02:42;;;;;;;17.52;10.50;;;;;;;20.22;48.40;102112.69;5020014;28;20072;-69
2023/06/01 08:05:09;;;;;;;14.15;10.75;;;;;;;20.32;48.05;102111.09;5015411;28;20037;-67
2023/06/01 08:07:35;;;;;;;13.95;10.40;;;;;;;20.56;47.41;102102.19;5015879;28;20029;-69
2023/06/01 08:10:01;;;;;;;12.57;10.43;;;;;;;21.11;46.51;102106.22;5015694;28;20055;-67
2023/06/01 08:12:27;;;;;;;12.95;10.02;;;;;;;21.23;44.84;102101.69;5017637;28;20506;-68
2023/06/01 08:14:52;;;;;;;11.23;9.20;;;;;;;21.56;44.78;102100.97;5019119;28;20430;-69
2023/06/01 08:17:18;;;;;;;12.90;10.13;;;;;;;21.79;43.21;102102.78;5022339;28;20025;-68
2023/06/01 08:19:44;;;;;;;12.63;10.18;;;;;;;21.82;42.81;102101.66;5020117;28;20075;-68
2023/06/01 08:22:11;;;;;;;11.90;10.65;;;;;;;21.81;42.74;102103.50;5024503;28;20104;-68
2023/06/01 08:24:37;;;;;;;14.90;10.10;;;;;;;22.12;42.84;102103.81;5021018;28;20030;-68
2023/06/01 08:27:16;;;;;;;13.18;10.45;;;;;;;23.04;42.54;102104.47;5020907;28;20022;-67
2023/06/01 08:29:41;;;;;;;13.55;9.98;;;;;;;23.36;40.23;102105.31;5020674;28;20056;-67
2023/06/01 08:32:07;;;;;;;13.45;10.05;;;;;;;23.81;38.91;102091.50;5017912;28;20134;-67
2023/06/01 08:34:32;;;;;;;13.23;10.52;;;;;;;23.74;38.41;102101.19;5020310;28;20485;-68
2023/06/01 08:36:58;;;;;;;14.65;10.45;;;;;;;23.65;38.12;102103.81;5004951;28;20126;-67
2023/06/01 08:39:25;;;;;;;12.48;10.48;;;;;;;24.01;37.81;102088.91;5020091;28;20135;-68
2023/06/01 08:42:10;;;;;;;13.45;10.57;;;;;;;24.48;36.66;102098.28;5019393;28;20029;-68
2023/06/01 08:44:38;;;;;;;12.02;10.38;;;;;;;24.77;36.37;102089.34;5019423;28;20036;-67
2023/06/01 08:47:04;;;;;;;13.05;10.02;;;;;;;25.35;35.28;102092.13;5018167;28;20025;-68
2023/06/01 08:49:35;;;;;;;11.60;10.13;;;;;;;25.47;35.18;102084.69;5017907;28;20021;-69
2023/06/01 08:52:03;;;;;;;13.80;10.07;;;;;;;25.64;33.84;102088.53;5015963;28;20075;-68
2023/06/01 08:54:30;;;;;;;14.18;9.68;;;;;;;25.96;34.28;102083.59;5022216;28;20052;-68
2023/06/01 08:56:59;;;;;;;14.45;9.85;;;;;;;25.62;34.27;102088.66;5022244;28;20136;-68
2023/06/01 08:59:25;;;;;;;14.27;10.25;;;;;;;25.53;33.95;102089.53;5020543;28;20036;-69
2023/06/01 09:01:53;;;;;;;13.25;9.60;;;;;;;25.97;33.67;102081.72;5016462;28;20033;-68
2023/06/01 09:04:18;;;;;;;13.32;9.35;;;;;;;26.56;32.81;102084.06;5020803;28;20025;-68
2023/06/01 09:06:43;;;;;;;12.90;9.70;;;;;;;26.93;32.23;102079.53;5015630;28;20041;-69
2023/06/01 09:09:12;;;;;;;10.90;9.07;;;;;;;26.95;31.85;102081.06;5029795;28;20033;-68
2023/06/01 09:11:37;;;;;;;12.07;9.50;;;;;;;27.52;31.14;102072.56;5026063;28;20033;-68
2023/06/01 09:14:20;;;;;;;11.75;9.55;;;;;;;28.10;32.11;102074.66;5022902;28;20414;-67
2023/06/01 09:16:46;;;;;;;13.13;10.27;;;;;;;27.96;30.12;102078.00;5025632;28;20034;-67
2023/06/01 09:19:11;;;;;;;13.45;10.95;;;;;;;27.46;30.42;102076.75;5024871;28;20024;-68
2023/06/01 09:21:37;;;;;;;13.65;10.90;;;;;;;27.67;30.96;102068.19;5022767;28;20554;-68
2023/06/01 09:24:24;;;;;;;12.73;10.02;;;;;;;28.32;30.58;102066.88;5022736;28;20037;-68
2023/06/01 09:26:50;;;;;;;14.48;10.35;;;;;;;28.81;29.33;102062.44;5022958;28;20526;-67
2023/06/01 09:29:16;;;;;;;13.88;9.80;;;;;;;28.65;29.03;102066.00;5023253;28;20202;-68
2023/06/01 09:31:47;;;;;;;15.52;10.60;;;;;;;28.43;29.54;102064.75;5024218;28;20068;-67
2023/06/01 09:34:17;;;;;;;13.30;10.93;;;;;;;28.03;29.14;102055.28;5023815;28;20084;-67
2023/06/01 09:36:43;;;;;;;15.80;10.38;;;;;;;29.02;28.68;102043.66;5025735;28;20049;-66
2023/06/01 09:39:16;;;;;;;12.65;10.93;;;;;;;29.53;28.40;102057.19;5026628;28;20148;-67
2023/06/01 09:41:47;;;;;;;14.70;11.10;;;;;;;29.39;28.65;102053.28;5023328;28;20036;-68
2023/06/01 09:44:21;;;;;;;12.18;10.95;;;;;;;29.57;27.67;102038.53;5024914;28;20060;-68
2023/06/01 09:46:54;;;;;;;12.38;11.07;;;;;;;29.22;27.44;102052.41;5023361;28;20025;-67
2023/06/01 09:49:29;;;;;;;12.80;11.25;;;;;;;29.19;28.33;102051.91;5023957;28;20049;-66
2023/06/01 09:52:16;;;;;;;12.43;10.32;;;;;;;30.09;28.94;102035.28;5026820;28;20025;-67
2023/06/01 09:54:47;;;;;;;12.82;11.52;;;;;;;30.18;26.82;102043.38;5032902;28;20025;-68
2023/06/01 09:57:19;;;;;;;12.20;10.90;;;;;;;30.42;26.32;102045.13;5034031;28;20041;-67
2023/06/01 09:59:46;;;;;;;13.20;10.93;;;;;;;31.09;26.06;102041.78;5039010;28;20037;-68
2023/06/01 10:02:13;;;;;;;13.23;11.15;;;;;;;30.95;25.64;102051.69;5029709;28;20295;-67
2023/06/01 10:04:40;;;;;;;14.95;11.15;;;;;;;30.67;25.17;102051.31;5034960;28;20281;-70
2023/06/01 10:07:07;;;;;;;12.90;11.18;;;;;;;30.44;25.08;102051.31;5026575;28;20041;-66
2023/06/01 10:09:35;;;;;;;11.63;10.13;;;;;;;30.55;25.37;102043.69;5021590;28;20046;-68
2023/06/01 10:12:01;;;;;;;13.25;10.90;;;;;;;30.19;25.71;102044.22;5024712;28;20032;-67
2023/06/01 10:14:27;;;;;;;13.70;11.68;;;;;;;30.07;26.09;102045.59;5021970;28;20134;-67
2023/06/01 10:16:53;;;;;;;13.38;10.30;;;;;;;30.29;25.45;102046.75;5013501;28;20295;-67
2023/06/01 10:19:20;;;;;;;13.60;11.13;;;;;;;30.30;25.57;102042.94;5020713;28;20192;-67
2023/06/01 10:21:46;;;;;;;12.90;10.40;;;;;;;30.69;25.80;102038.28;5018653;28;20038;-68
2023/06/01 10:24:13;;;;;;;13.85;10.93;;;;;;;31.57;24.59;102034.16;5020842;28;20025;-67
2023/06/01 10:26:46;;;;;;;14.20;10.80;;;;;;;32.14;23.79;102029.91;5018453;28;20507;-66
2023/06/01 10:29:11;;;;;;;13.13;10.98;;;;;;;32.82;23.17;102039.66;5016907;28;20029;-67
2023/06/01 10:31:37;;;;;;;12.93;11.25;;;;;;;32.17;23.40;102032.28;5015123;28;20037;-67
2023/06/01 10:34:03;;;;;;;14.80;10.82;;;;;;;32.03;23.15;102039.53;5017803;28;20040;-67
2023/06/01 10:36:51;;;;;;;15.50;10.93;;;;;;;32.82;24.11;102027.78;5023457;28;20028;-67
2023/06/01 10:39:25;;;;;;;12.25;10.68;;;;;;;32.02;24.27;102017.66;5009014;28;20041;-68
2023/06/01 10:41:52;;;;;;;12.57;9.60;;;;;;;32.57;22.90;102024.56;5024765;28;20518;-67
2023/06/01 10:44:44;;;;;;;12.23;9.80;;;;;;;33.73;22.25;102028.78;5020500;28;20029;-67
2023/06/01 10:47:12;;;;;;;12.63;10.18;;;;;;;32.43;22.61;102029.88;5021968;28;20038;-68
2023/06/01 10:49:46;;;;;;;13.02;9.52;;;;;;;33.10;23.21;102027.88;5021482;28;20033;-67
2023/06/01 10:52:29;;;;;;;13.05;10.43;;;;;;;32.52;23.11;102025.13;5022891;28;20594;-67
2023/06/01 10:55:16;;;;;;;16.80;10.43;;;;;;;31.99;23.44;102018.94;5016996;28;20076;-68
2023/06/01 10:57:45;;;;;;;13.38;10.23;;;;;;;31.98;23.64;102026.34;5016216;28;20029;-67
2023/06/01 11:00:22;;;;;;;15.95;11.27;;;;;;;32.25;22.58;102023.91;5013386;28;20033;-66
2023/06/01 11:02:58;;;;;;;13.27;10.00;;;;;;;32.91;22.81;102019.19;5014639;28;20116;-67
2023/06/01 11:05:37;;;;;;;13.07;10.73;;;;;;;32.96;22.89;102013.09;5019472;28;20029;-67
2023/06/01 11:08:03;;;;;;;14.32;11.55;;;;;;;32.52;22.61;102005.81;5023174;28;20041;-67
2023/06/01 11:10:52;;;;;;;18.88;10.65;;;;;;;34.33;22.55;102007.91;5019892;28;20053;-68
2023/06/01 11:13:24;;;;;;;12.35;11.05;;;;;;;33.92;21.71;102005.13;5021158;28;20029;-68